sensor_id;sensor_type;location;lat;lon;timestamp;temperature;humidity
7234;DHT22;3658;47.992;10.158;2022-10-31T00:00:08;21.70;57.60
7234;DHT22;3658;47.992;10.158;2022-10-31T00:02:35;21.70;57.60
7234;DHT22;3658;47.992;10.158;2022-10-31T00:05:02;21.70;57.50
7234;DHT22;3658;47.992;10.158;2022-10-31T00:07:29;21.70;57.50
7234;DHT22;3658;47.992;10.158;2022-10-31T00:09:56;21.70;57.50
7234;DHT22;3658;47.992;10.158;2022-10-31T00:12:23;21.70;57.50
7234;DHT22;3658;47.992;10.158;2022-10-31T00:14:51;21.70;57.50
7234;DHT22;3658;47.992;10.158;2022-10-31T00:17:18;21.70;57.40
7234;DHT22;3658;47.992;10.158;2022-10-31T00:19:45;21.80;57.50
7234;DHT22;3658;47.992;10.158;2022-10-31T00:22:12;21.70;57.40
7234;DHT22;3658;47.992;10.158;2022-10-31T00:24:39;21.60;57.30
7234;DHT22;3658;47.992;10.158;2022-10-31T00:27:06;21.60;57.30
7234;DHT22;3658;47.992;10.158;2022-10-31T00:29:33;21.60;57.30
7234;DHT22;3658;47.992;10.158;2022-10-31T00:32:01;21.60;57.20
7234;DHT22;3658;47.992;10.158;2022-10-31T00:34:28;21.60;57.20
7234;DHT22;3658;47.992;10.158;2022-10-31T00:36:55;21.60;57.20
7234;DHT22;3658;47.992;10.158;2022-10-31T00:39:22;21.60;57.80
7234;DHT22;3658;47.992;10.158;2022-10-31T00:41:49;21.60;57.20
7234;DHT22;3658;47.992;10.158;2022-10-31T00:44:16;21.60;57.20
7234;DHT22;3658;47.992;10.158;2022-10-31T00:46:42;21.60;57.20
7234;DHT22;3658;47.992;10.158;2022-10-31T00:49:11;21.60;57.20
7234;DHT22;3658;47.992;10.158;2022-10-31T00:51:38;21.60;57.20
7234;DHT22;3658;47.992;10.158;2022-10-31T00:54:05;21.60;57.10
7234;DHT22;3658;47.992;10.158;2022-10-31T00:56:32;21.60;57.10
7234;DHT22;3658;47.992;10.158;2022-10-31T00:58:59;21.60;57.10
7234;DHT22;3658;47.992;10.158;2022-10-31T01:01:26;21.60;57.10
7234;DHT22;3658;47.992;10.158;2022-10-31T01:03:53;21.60;57.10
7234;DHT22;3658;47.992;10.158;2022-10-31T01:06:21;21.60;57.10
7234;DHT22;3658;47.992;10.158;2022-10-31T01:08:48;21.60;57.10
7234;DHT22;3658;47.992;10.158;2022-10-31T01:11:17;21.60;57.10
7234;DHT22;3658;47.992;10.158;2022-10-31T01:13:45;21.60;57.10
7234;DHT22;3658;47.992;10.158;2022-10-31T01:16:14;21.60;57.10
7234;DHT22;3658;47.992;10.158;2022-10-31T01:18:42;21.60;57.10
7234;DHT22;3658;47.992;10.158;2022-10-31T01:21:11;21.60;57.10
7234;DHT22;3658;47.992;10.158;2022-10-31T01:23:40;21.60;57.10
7234;DHT22;3658;47.992;10.158;2022-10-31T01:26:09;21.60;57.10
7234;DHT22;3658;47.992;10.158;2022-10-31T01:28:37;21.60;57.10
7234;DHT22;3658;47.992;10.158;2022-10-31T01:31:06;21.60;57.00
7234;DHT22;3658;47.992;10.158;2022-10-31T01:33:34;21.50;57.00
7234;DHT22;3658;47.992;10.158;2022-10-31T01:36:01;21.50;57.00
7234;DHT22;3658;47.992;10.158;2022-10-31T01:38:36;21.50;57.00
7234;DHT22;3658;47.992;10.158;2022-10-31T01:41:05;21.50;57.00
7234;DHT22;3658;47.992;10.158;2022-10-31T01:43:43;21.50;57.00
7234;DHT22;3658;47.992;10.158;2022-10-31T01:46:10;21.50;57.00
7234;DHT22;3658;47.992;10.158;2022-10-31T01:48:39;21.50;57.00
7234;DHT22;3658;47.992;10.158;2022-10-31T01:51:08;21.50;57.00
7234;DHT22;3658;47.992;10.158;2022-10-31T01:53:36;21.50;57.00
7234;DHT22;3658;47.992;10.158;2022-10-31T01:56:06;21.50;57.00
7234;DHT22;3658;47.992;10.158;2022-10-31T01:58:34;21.50;57.00
7234;DHT22;3658;47.992;10.158;2022-10-31T02:01:02;21.50;57.60
7234;DHT22;3658;47.992;10.158;2022-10-31T02:03:30;21.50;57.00
7234;DHT22;3658;47.992;10.158;2022-10-31T02:05:58;21.50;57.00
7234;DHT22;3658;47.992;10.158;2022-10-31T02:08:28;21.50;57.00
7234;DHT22;3658;47.992;10.158;2022-10-31T02:10:56;21.50;57.00
7234;DHT22;3658;47.992;10.158;2022-10-31T02:13:25;21.50;56.90
7234;DHT22;3658;47.992;10.158;2022-10-31T02:15:55;21.50;56.90
7234;DHT22;3658;47.992;10.158;2022-10-31T02:18:25;21.50;56.90
7234;DHT22;3658;47.992;10.158;2022-10-31T02:20:58;21.50;56.90
7234;DHT22;3658;47.992;10.158;2022-10-31T02:26:44;21.50;56.90
7234;DHT22;3658;47.992;10.158;2022-10-31T02:32:27;21.50;56.90
7234;DHT22;3658;47.992;10.158;2022-10-31T02:34:59;21.50;56.90
7234;DHT22;3658;47.992;10.158;2022-10-31T02:37:34;21.50;56.90
7234;DHT22;3658;47.992;10.158;2022-10-31T02:40:09;21.50;56.90
7234;DHT22;3658;47.992;10.158;2022-10-31T02:42:41;21.50;56.90
7234;DHT22;3658;47.992;10.158;2022-10-31T02:45:15;21.40;56.80
7234;DHT22;3658;47.992;10.158;2022-10-31T02:47:48;21.40;56.70
7234;DHT22;3658;47.992;10.158;2022-10-31T02:50:20;21.40;56.80
7234;DHT22;3658;47.992;10.158;2022-10-31T02:52:50;21.40;56.70
7234;DHT22;3658;47.992;10.158;2022-10-31T02:55:44;21.40;56.70
7234;DHT22;3658;47.992;10.158;2022-10-31T02:58:15;21.40;56.70
7234;DHT22;3658;47.992;10.158;2022-10-31T03:00:50;21.40;56.70
7234;DHT22;3658;47.992;10.158;2022-10-31T03:03:26;21.40;56.70
7234;DHT22;3658;47.992;10.158;2022-10-31T03:05:57;21.40;56.70
7234;DHT22;3658;47.992;10.158;2022-10-31T03:08:32;21.40;56.70
7234;DHT22;3658;47.992;10.158;2022-10-31T03:11:03;21.40;56.70
7234;DHT22;3658;47.992;10.158;2022-10-31T03:13:35;21.40;56.70
7234;DHT22;3658;47.992;10.158;2022-10-31T03:16:09;21.40;56.70
7234;DHT22;3658;47.992;10.158;2022-10-31T03:18:40;21.40;56.80
7234;DHT22;3658;47.992;10.158;2022-10-31T03:21:11;21.40;56.80
7234;DHT22;3658;47.992;10.158;2022-10-31T03:23:41;21.40;56.70
7234;DHT22;3658;47.992;10.158;2022-10-31T03:26:09;21.40;56.70
7234;DHT22;3658;47.992;10.158;2022-10-31T03:28:41;21.40;56.70
7234;DHT22;3658;47.992;10.158;2022-10-31T03:31:12;21.40;56.70
7234;DHT22;3658;47.992;10.158;2022-10-31T03:33:42;21.40;56.70
7234;DHT22;3658;47.992;10.158;2022-10-31T03:36:11;21.40;56.70
7234;DHT22;3658;47.992;10.158;2022-10-31T03:38:41;21.40;56.70
7234;DHT22;3658;47.992;10.158;2022-10-31T03:41:16;21.40;56.70
7234;DHT22;3658;47.992;10.158;2022-10-31T03:43:51;21.40;56.70
7234;DHT22;3658;47.992;10.158;2022-10-31T03:46:19;21.40;56.70
7234;DHT22;3658;47.992;10.158;2022-10-31T03:48:48;21.40;56.70
7234;DHT22;3658;47.992;10.158;2022-10-31T03:51:20;21.40;56.70
7234;DHT22;3658;47.992;10.158;2022-10-31T03:53:54;21.40;56.70
7234;DHT22;3658;47.992;10.158;2022-10-31T03:56:29;21.40;56.70
7234;DHT22;3658;47.992;10.158;2022-10-31T03:59:04;21.40;56.70
7234;DHT22;3658;47.992;10.158;2022-10-31T04:01:34;21.30;56.60
7234;DHT22;3658;47.992;10.158;2022-10-31T04:04:05;21.40;56.70
7234;DHT22;3658;47.992;10.158;2022-10-31T04:06:34;21.40;56.70
7234;DHT22;3658;47.992;10.158;2022-10-31T04:09:04;21.40;56.70
7234;DHT22;3658;47.992;10.158;2022-10-31T04:11:36;21.40;56.70
7234;DHT22;3658;47.992;10.158;2022-10-31T04:14:05;21.40;56.70
7234;DHT22;3658;47.992;10.158;2022-10-31T04:16:33;21.40;56.70
7234;DHT22;3658;47.992;10.158;2022-10-31T04:19:00;21.40;56.70
7234;DHT22;3658;47.992;10.158;2022-10-31T04:21:29;21.30;56.50
7234;DHT22;3658;47.992;10.158;2022-10-31T04:23:56;21.40;56.60
7234;DHT22;3658;47.992;10.158;2022-10-31T04:26:23;21.40;56.70
7234;DHT22;3658;47.992;10.158;2022-10-31T04:28:50;21.40;56.70
7234;DHT22;3658;47.992;10.158;2022-10-31T04:31:17;21.40;56.70
7234;DHT22;3658;47.992;10.158;2022-10-31T04:33:44;21.30;56.60
7234;DHT22;3658;47.992;10.158;2022-10-31T04:36:11;21.30;56.50
7234;DHT22;3658;47.992;10.158;2022-10-31T04:38:40;21.30;56.50
7234;DHT22;3658;47.992;10.158;2022-10-31T04:41:06;21.30;56.60
7234;DHT22;3658;47.992;10.158;2022-10-31T04:43:33;21.30;56.60
7234;DHT22;3658;47.992;10.158;2022-10-31T04:46:01;21.30;56.50
7234;DHT22;3658;47.992;10.158;2022-10-31T04:48:28;21.30;56.50
7234;DHT22;3658;47.992;10.158;2022-10-31T04:50:58;21.30;57.20
7234;DHT22;3658;47.992;10.158;2022-10-31T04:53:26;21.30;56.50
7234;DHT22;3658;47.992;10.158;2022-10-31T04:55:54;21.30;56.50
7234;DHT22;3658;47.992;10.158;2022-10-31T04:58:21;21.30;56.50
7234;DHT22;3658;47.992;10.158;2022-10-31T05:00:51;21.30;56.50
7234;DHT22;3658;47.992;10.158;2022-10-31T05:03:18;21.30;56.50
7234;DHT22;3658;47.992;10.158;2022-10-31T05:05:46;21.30;56.50
7234;DHT22;3658;47.992;10.158;2022-10-31T05:08:13;21.30;56.50
7234;DHT22;3658;47.992;10.158;2022-10-31T05:10:41;21.30;56.50
7234;DHT22;3658;47.992;10.158;2022-10-31T05:13:10;21.30;56.50
7234;DHT22;3658;47.992;10.158;2022-10-31T05:15:38;21.30;56.50
7234;DHT22;3658;47.992;10.158;2022-10-31T05:18:05;21.30;56.50
7234;DHT22;3658;47.992;10.158;2022-10-31T05:20:32;21.30;56.50
7234;DHT22;3658;47.992;10.158;2022-10-31T05:23:00;21.30;56.50
7234;DHT22;3658;47.992;10.158;2022-10-31T05:25:28;21.30;56.50
7234;DHT22;3658;47.992;10.158;2022-10-31T05:27:56;21.30;56.50
7234;DHT22;3658;47.992;10.158;2022-10-31T05:30:27;21.30;56.50
7234;DHT22;3658;47.992;10.158;2022-10-31T05:32:54;21.30;56.50
7234;DHT22;3658;47.992;10.158;2022-10-31T05:35:23;21.30;56.50
7234;DHT22;3658;47.992;10.158;2022-10-31T05:37:51;21.30;56.40
7234;DHT22;3658;47.992;10.158;2022-10-31T05:40:19;21.30;56.40
7234;DHT22;3658;47.992;10.158;2022-10-31T05:42:46;21.30;56.40
7234;DHT22;3658;47.992;10.158;2022-10-31T05:45:16;21.30;56.50
7234;DHT22;3658;47.992;10.158;2022-10-31T05:47:50;21.30;56.40
7234;DHT22;3658;47.992;10.158;2022-10-31T05:50:18;21.30;56.50
7234;DHT22;3658;47.992;10.158;2022-10-31T05:52:45;21.30;56.40
7234;DHT22;3658;47.992;10.158;2022-10-31T05:55:12;21.30;56.40
7234;DHT22;3658;47.992;10.158;2022-10-31T05:57:39;21.30;56.40
7234;DHT22;3658;47.992;10.158;2022-10-31T06:00:08;21.20;56.40
7234;DHT22;3658;47.992;10.158;2022-10-31T06:02:35;21.20;56.40
7234;DHT22;3658;47.992;10.158;2022-10-31T06:05:04;21.20;56.40
7234;DHT22;3658;47.992;10.158;2022-10-31T06:07:35;21.20;56.30
7234;DHT22;3658;47.992;10.158;2022-10-31T06:10:04;21.20;56.40
7234;DHT22;3658;47.992;10.158;2022-10-31T06:12:33;21.20;56.40
7234;DHT22;3658;47.992;10.158;2022-10-31T06:15:04;21.20;56.30
7234;DHT22;3658;47.992;10.158;2022-10-31T06:17:32;21.20;56.30
7234;DHT22;3658;47.992;10.158;2022-10-31T06:20:00;21.20;57.00
7234;DHT22;3658;47.992;10.158;2022-10-31T06:22:28;21.20;56.30
7234;DHT22;3658;47.992;10.158;2022-10-31T06:24:55;21.20;56.30
7234;DHT22;3658;47.992;10.158;2022-10-31T06:27:23;21.20;56.40
7234;DHT22;3658;47.992;10.158;2022-10-31T06:29:50;21.20;56.40
7234;DHT22;3658;47.992;10.158;2022-10-31T06:32:18;21.20;56.40
7234;DHT22;3658;47.992;10.158;2022-10-31T06:34:45;21.20;56.40
7234;DHT22;3658;47.992;10.158;2022-10-31T06:37:14;21.20;56.30
7234;DHT22;3658;47.992;10.158;2022-10-31T06:39:43;21.20;56.40
7234;DHT22;3658;47.992;10.158;2022-10-31T06:42:10;21.20;56.40
7234;DHT22;3658;47.992;10.158;2022-10-31T06:44:37;21.20;56.40
7234;DHT22;3658;47.992;10.158;2022-10-31T06:47:05;21.20;56.40
7234;DHT22;3658;47.992;10.158;2022-10-31T06:49:32;21.20;56.40
7234;DHT22;3658;47.992;10.158;2022-10-31T06:52:00;21.20;56.40
7234;DHT22;3658;47.992;10.158;2022-10-31T06:54:27;21.20;57.00
7234;DHT22;3658;47.992;10.158;2022-10-31T06:56:56;21.20;57.40
7234;DHT22;3658;47.992;10.158;2022-10-31T07:02:52;21.30;58.30
7234;DHT22;3658;47.992;10.158;2022-10-31T07:05:19;21.30;58.20
7234;DHT22;3658;47.992;10.158;2022-10-31T07:07:46;21.30;57.90
7234;DHT22;3658;47.992;10.158;2022-10-31T07:10:13;21.40;57.80
7234;DHT22;3658;47.992;10.158;2022-10-31T07:12:41;21.40;57.70
7234;DHT22;3658;47.992;10.158;2022-10-31T07:15:09;21.40;57.70
7234;DHT22;3658;47.992;10.158;2022-10-31T07:17:36;21.50;57.80
7234;DHT22;3658;47.992;10.158;2022-10-31T07:20:04;21.50;57.80
7234;DHT22;3658;47.992;10.158;2022-10-31T07:22:34;21.50;57.70
7234;DHT22;3658;47.992;10.158;2022-10-31T07:25:01;21.50;57.80
7234;DHT22;3658;47.992;10.158;2022-10-31T07:27:28;21.50;57.70
7234;DHT22;3658;47.992;10.158;2022-10-31T07:29:56;21.50;57.70
7234;DHT22;3658;47.992;10.158;2022-10-31T07:32:23;21.60;57.70
7234;DHT22;3658;47.992;10.158;2022-10-31T07:34:50;21.60;57.80
7234;DHT22;3658;47.992;10.158;2022-10-31T07:37:17;21.60;57.70
7234;DHT22;3658;47.992;10.158;2022-10-31T07:39:44;21.60;57.80
7234;DHT22;3658;47.992;10.158;2022-10-31T07:42:10;21.60;57.90
7234;DHT22;3658;47.992;10.158;2022-10-31T07:44:38;21.60;57.80
7234;DHT22;3658;47.992;10.158;2022-10-31T07:47:06;21.60;58.00
7234;DHT22;3658;47.992;10.158;2022-10-31T07:49:33;21.70;58.10
7234;DHT22;3658;47.992;10.158;2022-10-31T07:52:00;21.70;58.00
7234;DHT22;3658;47.992;10.158;2022-10-31T07:54:27;21.70;58.00
7234;DHT22;3658;47.992;10.158;2022-10-31T07:56:54;21.80;58.10
7234;DHT22;3658;47.992;10.158;2022-10-31T07:59:21;21.80;58.00
7234;DHT22;3658;47.992;10.158;2022-10-31T08:01:48;21.80;58.00
7234;DHT22;3658;47.992;10.158;2022-10-31T08:04:16;21.80;58.00
7234;DHT22;3658;47.992;10.158;2022-10-31T08:06:43;21.80;58.00
7234;DHT22;3658;47.992;10.158;2022-10-31T08:12:31;21.90;58.30
7234;DHT22;3658;47.992;10.158;2022-10-31T08:14:58;21.90;58.30
7234;DHT22;3658;47.992;10.158;2022-10-31T08:17:25;21.90;58.10
7234;DHT22;3658;47.992;10.158;2022-10-31T08:19:54;21.90;58.10
7234;DHT22;3658;47.992;10.158;2022-10-31T08:22:21;21.90;58.20
7234;DHT22;3658;47.992;10.158;2022-10-31T08:24:48;21.90;58.10
7234;DHT22;3658;47.992;10.158;2022-10-31T08:27:15;21.90;58.00
7234;DHT22;3658;47.992;10.158;2022-10-31T08:29:42;21.90;58.00
7234;DHT22;3658;47.992;10.158;2022-10-31T08:32:09;21.90;57.80
7234;DHT22;3658;47.992;10.158;2022-10-31T08:34:36;22.00;57.90
7234;DHT22;3658;47.992;10.158;2022-10-31T08:37:04;22.00;58.00
7234;DHT22;3658;47.992;10.158;2022-10-31T08:39:31;22.00;57.90
7234;DHT22;3658;47.992;10.158;2022-10-31T08:41:58;21.90;57.70
7234;DHT22;3658;47.992;10.158;2022-10-31T08:44:25;21.90;57.80
7234;DHT22;3658;47.992;10.158;2022-10-31T08:46:52;21.90;57.90
7234;DHT22;3658;47.992;10.158;2022-10-31T08:49:19;21.90;57.90
7234;DHT22;3658;47.992;10.158;2022-10-31T08:51:47;21.90;57.90
7234;DHT22;3658;47.992;10.158;2022-10-31T08:54:16;22.00;58.00
7234;DHT22;3658;47.992;10.158;2022-10-31T08:56:43;22.00;58.00
7234;DHT22;3658;47.992;10.158;2022-10-31T09:02:32;22.00;58.00
7234;DHT22;3658;47.992;10.158;2022-10-31T09:04:59;22.00;58.00
7234;DHT22;3658;47.992;10.158;2022-10-31T09:07:26;22.00;57.90
7234;DHT22;3658;47.992;10.158;2022-10-31T09:09:54;22.00;57.90
7234;DHT22;3658;47.992;10.158;2022-10-31T09:12:22;22.00;57.90
7234;DHT22;3658;47.992;10.158;2022-10-31T09:14:50;22.00;57.90
7234;DHT22;3658;47.992;10.158;2022-10-31T09:17:17;22.00;58.10
7234;DHT22;3658;47.992;10.158;2022-10-31T09:19:44;22.00;58.20
7234;DHT22;3658;47.992;10.158;2022-10-31T09:22:11;22.00;58.00
7234;DHT22;3658;47.992;10.158;2022-10-31T09:24:38;22.00;58.30
7234;DHT22;3658;47.992;10.158;2022-10-31T09:27:07;22.00;58.20
7234;DHT22;3658;47.992;10.158;2022-10-31T09:29:34;22.00;58.30
7234;DHT22;3658;47.992;10.158;2022-10-31T09:32:02;22.00;58.00
7234;DHT22;3658;47.992;10.158;2022-10-31T09:34:29;21.90;58.50
7234;DHT22;3658;47.992;10.158;2022-10-31T09:36:58;21.90;57.90
7234;DHT22;3658;47.992;10.158;2022-10-31T09:39:25;21.90;58.50
7234;DHT22;3658;47.992;10.158;2022-10-31T09:42:16;21.90;57.90
7234;DHT22;3658;47.992;10.158;2022-10-31T09:44:57;21.90;58.00
7234;DHT22;3658;47.992;10.158;2022-10-31T09:47:40;21.90;58.00
7234;DHT22;3658;47.992;10.158;2022-10-31T09:50:15;21.90;57.90
7234;DHT22;3658;47.992;10.158;2022-10-31T09:52:50;21.90;57.90
7234;DHT22;3658;47.992;10.158;2022-10-31T09:55:23;21.90;58.00
7234;DHT22;3658;47.992;10.158;2022-10-31T09:57:54;21.90;58.00
7234;DHT22;3658;47.992;10.158;2022-10-31T10:00:22;21.80;57.90
7234;DHT22;3658;47.992;10.158;2022-10-31T10:02:53;21.80;58.30
7234;DHT22;3658;47.992;10.158;2022-10-31T10:05:28;21.90;58.60
7234;DHT22;3658;47.992;10.158;2022-10-31T10:08:03;21.90;58.50
7234;DHT22;3658;47.992;10.158;2022-10-31T10:10:44;21.90;58.50
7234;DHT22;3658;47.992;10.158;2022-10-31T10:16:21;21.90;58.50
7234;DHT22;3658;47.992;10.158;2022-10-31T10:19:02;21.90;58.40
7234;DHT22;3658;47.992;10.158;2022-10-31T10:21:39;21.90;58.40
7234;DHT22;3658;47.992;10.158;2022-10-31T10:24:18;21.90;58.40
7234;DHT22;3658;47.992;10.158;2022-10-31T10:26:53;21.90;58.40
7234;DHT22;3658;47.992;10.158;2022-10-31T10:32:48;21.90;57.90
7234;DHT22;3658;47.992;10.158;2022-10-31T10:35:22;21.80;58.10
7234;DHT22;3658;47.992;10.158;2022-10-31T10:37:52;21.80;58.40
7234;DHT22;3658;47.992;10.158;2022-10-31T10:40:22;21.80;58.40
7234;DHT22;3658;47.992;10.158;2022-10-31T10:42:58;21.80;58.50
7234;DHT22;3658;47.992;10.158;2022-10-31T10:45:44;21.80;58.50
7234;DHT22;3658;47.992;10.158;2022-10-31T10:48:39;21.80;58.50
7234;DHT22;3658;47.992;10.158;2022-10-31T10:51:19;21.80;58.60
7234;DHT22;3658;47.992;10.158;2022-10-31T10:53:54;21.90;58.60
7234;DHT22;3658;47.992;10.158;2022-10-31T10:56:38;21.90;58.60
7234;DHT22;3658;47.992;10.158;2022-10-31T10:59:09;21.90;58.60
7234;DHT22;3658;47.992;10.158;2022-10-31T11:01:39;21.90;58.70
7234;DHT22;3658;47.992;10.158;2022-10-31T11:04:25;21.90;58.80
7234;DHT22;3658;47.992;10.158;2022-10-31T11:07:01;21.90;58.80
7234;DHT22;3658;47.992;10.158;2022-10-31T11:13:04;21.90;59.10
7234;DHT22;3658;47.992;10.158;2022-10-31T11:15:35;21.90;59.20
7234;DHT22;3658;47.992;10.158;2022-10-31T11:21:29;21.80;58.40
7234;DHT22;3658;47.992;10.158;2022-10-31T11:24:13;21.70;58.30
7234;DHT22;3658;47.992;10.158;2022-10-31T11:26:42;21.70;58.10
7234;DHT22;3658;47.992;10.158;2022-10-31T11:29:17;21.60;57.80
7234;DHT22;3658;47.992;10.158;2022-10-31T11:31:47;21.60;57.40
7234;DHT22;3658;47.992;10.158;2022-10-31T11:34:26;21.60;57.20
7234;DHT22;3658;47.992;10.158;2022-10-31T11:37:04;21.60;57.00
7234;DHT22;3658;47.992;10.158;2022-10-31T11:39:41;21.50;56.80
7234;DHT22;3658;47.992;10.158;2022-10-31T11:42:08;21.60;57.00
7234;DHT22;3658;47.992;10.158;2022-10-31T11:44:35;21.50;56.70
7234;DHT22;3658;47.992;10.158;2022-10-31T11:47:04;21.50;56.70
7234;DHT22;3658;47.992;10.158;2022-10-31T11:49:34;21.50;56.70
7234;DHT22;3658;47.992;10.158;2022-10-31T11:52:06;21.50;56.70
7234;DHT22;3658;47.992;10.158;2022-10-31T11:54:38;21.50;56.70
7234;DHT22;3658;47.992;10.158;2022-10-31T11:57:22;21.50;56.70
7234;DHT22;3658;47.992;10.158;2022-10-31T11:59:52;21.50;56.70
7234;DHT22;3658;47.992;10.158;2022-10-31T12:02:20;21.50;56.70
7234;DHT22;3658;47.992;10.158;2022-10-31T12:04:51;21.50;56.40
7234;DHT22;3658;47.992;10.158;2022-10-31T12:07:22;21.50;56.60
7234;DHT22;3658;47.992;10.158;2022-10-31T12:09:50;21.60;57.00
7234;DHT22;3658;47.992;10.158;2022-10-31T12:15:20;21.80;57.40
7234;DHT22;3658;47.992;10.158;2022-10-31T12:17:56;21.90;57.50
7234;DHT22;3658;47.992;10.158;2022-10-31T12:20:32;22.00;57.50
7234;DHT22;3658;47.992;10.158;2022-10-31T12:23:09;22.00;57.20
7234;DHT22;3658;47.992;10.158;2022-10-31T12:25:44;21.90;57.10
7234;DHT22;3658;47.992;10.158;2022-10-31T12:28:42;21.90;57.10
7234;DHT22;3658;47.992;10.158;2022-10-31T12:31:25;21.90;57.20
7234;DHT22;3658;47.992;10.158;2022-10-31T12:34:00;21.90;57.20
7234;DHT22;3658;47.992;10.158;2022-10-31T12:36:38;22.00;57.30
7234;DHT22;3658;47.992;10.158;2022-10-31T12:39:24;22.00;57.20
7234;DHT22;3658;47.992;10.158;2022-10-31T12:41:53;22.00;57.20
7234;DHT22;3658;47.992;10.158;2022-10-31T12:44:47;22.00;57.50
7234;DHT22;3658;47.992;10.158;2022-10-31T12:50:22;22.00;58.00
7234;DHT22;3658;47.992;10.158;2022-10-31T12:52:59;22.00;57.80
7234;DHT22;3658;47.992;10.158;2022-10-31T12:55:42;22.00;57.70
7234;DHT22;3658;47.992;10.158;2022-10-31T12:58:17;22.00;57.40
7234;DHT22;3658;47.992;10.158;2022-10-31T13:00:50;22.00;57.50
7234;DHT22;3658;47.992;10.158;2022-10-31T13:03:23;22.00;57.70
7234;DHT22;3658;47.992;10.158;2022-10-31T13:05:54;22.00;57.70
7234;DHT22;3658;47.992;10.158;2022-10-31T13:08:27;22.00;57.70
7234;DHT22;3658;47.992;10.158;2022-10-31T13:11:05;22.00;57.60
7234;DHT22;3658;47.992;10.158;2022-10-31T13:13:40;22.00;57.60
7234;DHT22;3658;47.992;10.158;2022-10-31T13:16:13;22.00;57.60
7234;DHT22;3658;47.992;10.158;2022-10-31T13:18:46;22.00;57.50
7234;DHT22;3658;47.992;10.158;2022-10-31T13:21:18;22.00;57.60
7234;DHT22;3658;47.992;10.158;2022-10-31T13:23:49;21.90;57.50
7234;DHT22;3658;47.992;10.158;2022-10-31T13:26:23;21.90;58.10
7234;DHT22;3658;47.992;10.158;2022-10-31T13:28:57;21.90;57.50
7234;DHT22;3658;47.992;10.158;2022-10-31T13:31:26;21.90;57.60
7234;DHT22;3658;47.992;10.158;2022-10-31T13:33:58;21.90;57.50
7234;DHT22;3658;47.992;10.158;2022-10-31T13:36:32;21.90;57.50
7234;DHT22;3658;47.992;10.158;2022-10-31T13:39:12;22.00;57.60
7234;DHT22;3658;47.992;10.158;2022-10-31T13:41:48;21.90;57.40
7234;DHT22;3658;47.992;10.158;2022-10-31T13:44:21;21.90;57.40
7234;DHT22;3658;47.992;10.158;2022-10-31T13:46:50;21.90;57.50
7234;DHT22;3658;47.992;10.158;2022-10-31T13:52:39;21.90;57.40
7234;DHT22;3658;47.992;10.158;2022-10-31T13:55:39;21.90;57.40
7234;DHT22;3658;47.992;10.158;2022-10-31T13:58:21;21.90;57.30
7234;DHT22;3658;47.992;10.158;2022-10-31T14:01:04;21.90;57.20
7234;DHT22;3658;47.992;10.158;2022-10-31T14:03:35;21.90;57.60
7234;DHT22;3658;47.992;10.158;2022-10-31T14:06:03;21.90;57.30
7234;DHT22;3658;47.992;10.158;2022-10-31T14:08:33;21.90;57.50
7234;DHT22;3658;47.992;10.158;2022-10-31T14:11:02;21.90;57.30
7234;DHT22;3658;47.992;10.158;2022-10-31T14:13:32;21.90;57.20
7234;DHT22;3658;47.992;10.158;2022-10-31T14:16:04;21.90;57.10
7234;DHT22;3658;47.992;10.158;2022-10-31T14:18:34;21.90;57.00
7234;DHT22;3658;47.992;10.158;2022-10-31T14:21:14;21.90;56.90
7234;DHT22;3658;47.992;10.158;2022-10-31T14:23:41;21.90;56.70
7234;DHT22;3658;47.992;10.158;2022-10-31T14:26:31;21.90;56.70
7234;DHT22;3658;47.992;10.158;2022-10-31T14:29:00;21.90;56.90
7234;DHT22;3658;47.992;10.158;2022-10-31T14:31:34;21.90;57.00
7234;DHT22;3658;47.992;10.158;2022-10-31T14:34:15;21.90;57.10
7234;DHT22;3658;47.992;10.158;2022-10-31T14:39:39;21.90;57.00
7234;DHT22;3658;47.992;10.158;2022-10-31T14:42:24;21.90;57.00
7234;DHT22;3658;47.992;10.158;2022-10-31T14:45:14;21.90;56.90
7234;DHT22;3658;47.992;10.158;2022-10-31T14:47:52;21.90;56.80
7234;DHT22;3658;47.992;10.158;2022-10-31T14:50:34;21.90;56.70
7234;DHT22;3658;47.992;10.158;2022-10-31T14:53:05;21.90;56.70
7234;DHT22;3658;47.992;10.158;2022-10-31T14:55:33;21.90;56.50
7234;DHT22;3658;47.992;10.158;2022-10-31T14:58:04;21.80;56.40
7234;DHT22;3658;47.992;10.158;2022-10-31T15:00:33;21.80;56.50
7234;DHT22;3658;47.992;10.158;2022-10-31T15:03:07;21.80;56.40
7234;DHT22;3658;47.992;10.158;2022-10-31T15:05:46;21.80;56.50
7234;DHT22;3658;47.992;10.158;2022-10-31T15:08:26;21.80;56.40
7234;DHT22;3658;47.992;10.158;2022-10-31T15:10:53;21.80;56.20
7234;DHT22;3658;47.992;10.158;2022-10-31T15:13:22;21.70;56.20
7234;DHT22;3658;47.992;10.158;2022-10-31T15:15:51;21.70;56.20
7234;DHT22;3658;47.992;10.158;2022-10-31T15:18:22;21.70;56.20
7234;DHT22;3658;47.992;10.158;2022-10-31T15:20:50;21.60;56.20
7234;DHT22;3658;47.992;10.158;2022-10-31T15:23:23;21.60;56.20
7234;DHT22;3658;47.992;10.158;2022-10-31T15:25:50;21.60;56.20
7234;DHT22;3658;47.992;10.158;2022-10-31T15:28:25;21.60;56.20
7234;DHT22;3658;47.992;10.158;2022-10-31T15:30:54;21.60;56.10
7234;DHT22;3658;47.992;10.158;2022-10-31T15:33:24;21.50;56.10
7234;DHT22;3658;47.992;10.158;2022-10-31T15:36:01;21.50;56.10
7234;DHT22;3658;47.992;10.158;2022-10-31T15:38:32;21.50;56.10
7234;DHT22;3658;47.992;10.158;2022-10-31T15:41:04;21.50;56.10
7234;DHT22;3658;47.992;10.158;2022-10-31T15:43:36;21.50;56.20
7234;DHT22;3658;47.992;10.158;2022-10-31T15:46:07;21.50;56.20
7234;DHT22;3658;47.992;10.158;2022-10-31T15:48:35;21.50;56.10
7234;DHT22;3658;47.992;10.158;2022-10-31T15:51:04;21.50;56.10
7234;DHT22;3658;47.992;10.158;2022-10-31T15:53:35;21.50;56.10
7234;DHT22;3658;47.992;10.158;2022-10-31T15:56:07;21.60;56.40
7234;DHT22;3658;47.992;10.158;2022-10-31T15:58:43;21.70;56.50
7234;DHT22;3658;47.992;10.158;2022-10-31T16:01:21;21.70;56.50
7234;DHT22;3658;47.992;10.158;2022-10-31T16:03:59;21.80;56.50
7234;DHT22;3658;47.992;10.158;2022-10-31T16:06:26;21.90;56.50
7234;DHT22;3658;47.992;10.158;2022-10-31T16:08:53;21.90;56.50
7234;DHT22;3658;47.992;10.158;2022-10-31T16:11:24;21.90;56.50
7234;DHT22;3658;47.992;10.158;2022-10-31T16:13:58;21.90;56.40
7234;DHT22;3658;47.992;10.158;2022-10-31T16:16:26;22.00;56.50
7234;DHT22;3658;47.992;10.158;2022-10-31T16:18:55;22.00;56.50
7234;DHT22;3658;47.992;10.158;2022-10-31T16:21:28;22.00;56.50
7234;DHT22;3658;47.992;10.158;2022-10-31T16:23:59;22.00;56.50
7234;DHT22;3658;47.992;10.158;2022-10-31T16:26:27;22.00;56.60
7234;DHT22;3658;47.992;10.158;2022-10-31T16:32:29;22.00;56.50
7234;DHT22;3658;47.992;10.158;2022-10-31T16:38:18;22.00;56.60
7234;DHT22;3658;47.992;10.158;2022-10-31T16:40:45;22.10;56.70
7234;DHT22;3658;47.992;10.158;2022-10-31T16:43:15;22.10;56.80
7234;DHT22;3658;47.992;10.158;2022-10-31T16:45:44;22.10;56.70
7234;DHT22;3658;47.992;10.158;2022-10-31T16:51:34;22.10;56.70
7234;DHT22;3658;47.992;10.158;2022-10-31T16:54:01;22.10;56.80
7234;DHT22;3658;47.992;10.158;2022-10-31T16:56:30;22.10;56.70
7234;DHT22;3658;47.992;10.158;2022-10-31T16:58:58;22.10;56.70